Time;durP1;ratioP1;P1;durP2;ratioP2;P2;SDS_P1;SDS_P2;PMS_P1;PMS_P2;Temp;Humidity;BMP_temperature;BMP_pressure;BME280_temperature;BME280_humidity;BME280_pressure;Samples;Min_cycle;Max_cycle;Signal;HPM_P1;HPM_P2
2023/06/20 00:01:06;;;;;;;1.52;1.02;;;;;;;;;;12480489;23;20030;-86
2023/06/20 00:06:09;;;;;;;2.80;1.10;;;;;;;;;;12478309;23;20031;-86
2023/06/20 00:11:13;;;;;;;1.77;1.33;;;;;;;;;;12480504;23;20028;-86
2023/06/20 00:16:20;;;;;;;2.45;1.42;;;;;;;;;;12478165;23;20114;-87
2023/06/20 00:21:25;;;;;;;1.75;1.40;;;;;;;;;;12480284;23;20031;-87
2023/06/20 00:26:29;;;;;;;2.40;1.55;;;;;;;;;;12482494;23;20656;-88
2023/06/20 00:31:34;;;;;;;1.50;1.10;;;;;;;;;;12478870;23;20027;-87
2023/06/20 00:36:38;;;;;;;1.70;1.20;;;;;;;;;;12478353;23;20039;-87
2023/06/20 00:41:41;;;;;;;1.85;1.58;;;;;;;;;;12480447;23;20038;-88
2023/06/20 00:46:46;;;;;;;1.75;1.10;;;;;;;;;;12479507;23;20031;-88
2023/06/20 00:51:51;;;;;;;2.50;1.80;;;;;;;;;;12479260;23;20024;-88
2023/06/20 00:56:55;;;;;;;2.33;1.80;;;;;;;;;;12481025;23;20052;-87
2023/06/20 01:01:59;;;;;;;1.92;1.73;;;;;;;;;;12480647;23;20051;-88
2023/06/20 01:07:09;;;;;;;1.40;1.30;;;;;;;;;;12479098;23;20079;-88
2023/06/20 01:12:18;;;;;;;1.60;1.40;;;;;;;;;;12481488;23;20043;-88
2023/06/20 01:17:26;;;;;;;1.52;1.27;;;;;;;;;;12480838;23;20028;-89
2023/06/20 01:22:43;;;;;;;2.03;1.10;;;;;;;;;;12481421;23;20460;-88
2023/06/20 01:27:52;;;;;;;1.17;1.02;;;;;;;;;;12473289;23;20031;-88
2023/06/20 01:32:58;;;;;;;1.40;1.30;;;;;;;;;;12478069;23;20034;-87
2023/06/20 01:38:07;;;;;;;;;;;;;;;;;;12478487;23;20031;-88
2023/06/20 01:43:13;;;;;;;1.85;1.50;;;;;;;;;;12477384;23;20528;-88
2023/06/20 01:48:18;;;;;;;1.45;1.35;;;;;;;;;;12477689;23;20392;-88
2023/06/20 01:53:25;;;;;;;1.40;1.30;;;;;;;;;;12483508;23;20336;-89
2023/06/20 01:58:31;;;;;;;1.95;1.40;;;;;;;;;;12487353;23;20031;-88
2023/06/20 02:03:35;;;;;;;2.33;1.37;;;;;;;;;;12481979;23;20486;-89
2023/06/20 02:08:41;;;;;;;1.20;1.10;;;;;;;;;;12477249;23;20033;-88
2023/06/20 02:13:46;;;;;;;1.50;1.40;;;;;;;;;;12477749;23;20047;-87
2023/06/20 02:18:49;;;;;;;1.40;1.15;;;;;;;;;;12476779;23;20427;-88
2023/06/20 02:23:56;;;;;;;2.00;1.80;;;;;;;;;;12476951;23;20027;-88
2023/06/20 02:29:01;;;;;;;2.05;1.52;;;;;;;;;;12475920;23;20119;-88
2023/06/20 02:34:08;;;;;;;2.25;1.48;;;;;;;;;;12486870;23;20086;-82
2023/06/20 02:39:13;;;;;;;1.73;1.40;;;;;;;;;;12499162;23;20232;-82
2023/06/20 02:44:17;;;;;;;1.30;1.20;;;;;;;;;;12498188;23;20035;-82
2023/06/20 02:49:25;;;;;;;2.63;1.25;;;;;;;;;;12492503;23;20023;-81
2023/06/20 02:54:36;;;;;;;2.08;1.45;;;;;;;;;;12492843;23;20462;-82
2023/06/20 02:59:45;;;;;;;1.88;1.45;;;;;;;;;;12496323;23;20038;-82
2023/06/20 03:04:56;;;;;;;2.15;1.30;;;;;;;;;;12495886;23;20462;-81
2023/06/20 03:10:03;;;;;;;1.33;1.23;;;;;;;;;;12495590;23;20031;-81
2023/06/20 03:15:10;;;;;;;1.85;1.33;;;;;;;;;;12495057;23;20043;-82
2023/06/20 03:20:14;;;;;;;2.42;1.38;;;;;;;;;;12495860;23;20087;-82
2023/06/20 03:25:19;;;;;;;3.13;1.33;;;;;;;;;;12484226;23;20027;-82
2023/06/20 03:30:23;;;;;;;2.00;1.33;;;;;;;;;;12496349;23;20023;-82
2023/06/20 03:35:28;;;;;;;1.40;1.23;;;;;;;;;;12495700;23;20042;-82
2023/06/20 03:40:34;;;;;;;2.60;1.40;;;;;;;;;;12494128;23;20046;-82
2023/06/20 03:45:38;;;;;;;;;;;;;;;;;;12487407;23;20034;-82
2023/06/20 03:50:42;;;;;;;1.40;1.30;;;;;;;;;;12494104;23;19917;-82
2023/06/20 03:55:50;;;;;;;1.23;1.13;;;;;;;;;;12495273;23;20028;-82
2023/06/20 04:00:54;;;;;;;2.92;1.92;;;;;;;;;;12495271;23;20082;-82
2023/06/20 04:06:01;;;;;;;3.77;1.60;;;;;;;;;;12495099;23;20054;-82
2023/06/20 04:11:06;;;;;;;2.58;1.55;;;;;;;;;;12494692;23;20189;-82
2023/06/20 04:16:09;;;;;;;1.57;1.20;;;;;;;;;;12494914;23;20094;-82
2023/06/20 04:21:13;;;;;;;4.05;1.80;;;;;;;;;;12495027;23;20023;-82
2023/06/20 04:26:18;;;;;;;1.92;1.10;;;;;;;;;;12495082;23;20095;-82
2023/06/20 04:31:22;;;;;;;3.28;1.30;;;;;;;;;;12494837;23;20534;-82
2023/06/20 04:36:26;;;;;;;4.22;1.67;;;;;;;;;;12494471;23;20023;-82
2023/06/20 04:41:34;;;;;;;4.28;1.50;;;;;;;;;;12494787;23;20027;-81
2023/06/20 04:46:41;;;;;;;;;;;;;;;;;;12496377;23;20146;-82
2023/06/20 04:51:47;;;;;;;2.60;1.38;;;;;;;;;;12495213;23;19922;-82
2023/06/20 04:56:55;;;;;;;2.88;1.70;;;;;;;;;;12493956;23;20038;-79
2023/06/20 05:02:04;;;;;;;4.38;1.42;;;;;;;;;;12494142;23;20035;-80
2023/06/20 05:07:08;;;;;;;1.85;1.70;;;;;;;;;;12492403;23;20083;-81
2023/06/20 05:12:13;;;;;;;4.25;1.83;;;;;;;;;;12491329;23;20062;-80
2023/06/20 05:17:16;;;;;;;1.93;1.50;;;;;;;;;;12492122;23;20102;-80
2023/06/20 05:22:20;;;;;;;2.47;1.45;;;;;;;;;;12506018;23;20035;-80
2023/06/20 05:27:25;;;;;;;1.95;1.50;;;;;;;;;;12492353;23;20357;-80
2023/06/20 05:32:29;;;;;;;3.28;1.75;;;;;;;;;;12495230;23;20457;-80
2023/06/20 05:37:32;;;;;;;1.92;1.73;;;;;;;;;;12504727;23;20094;-80
2023/06/20 05:42:37;;;;;;;2.45;1.70;;;;;;;;;;12493422;23;20029;-80
2023/06/20 05:47:41;;;;;;;3.38;1.45;;;;;;;;;;12492729;23;20031;-80
2023/06/20 05:52:44;;;;;;;2.75;1.80;;;;;;;;;;12494295;23;20058;-80
2023/06/20 05:57:49;;;;;;;3.25;1.55;;;;;;;;;;12492682;23;20038;-80
2023/06/20 06:02:55;;;;;;;3.53;1.75;;;;;;;;;;12503248;23;20031;-81
2023/06/20 06:07:59;;;;;;;1.65;1.52;;;;;;;;;;12501500;23;20058;-81
2023/06/20 06:13:04;;;;;;;1.80;1.60;;;;;;;;;;12501453;23;20079;-81
2023/06/20 06:18:08;;;;;;;2.22;1.65;;;;;;;;;;12493550;23;20051;-81
2023/06/20 06:23:12;;;;;;;2.13;1.55;;;;;;;;;;12500290;23;20493;-81
2023/06/20 06:28:17;;;;;;;1.95;1.73;;;;;;;;;;12500810;23;20033;-81
2023/06/20 06:33:21;;;;;;;1.90;1.70;;;;;;;;;;12495183;23;20087;-80
2023/06/20 06:38:25;;;;;;;1.80;1.48;;;;;;;;;;12496319;23;20470;-81
2023/06/20 06:43:30;;;;;;;1.98;1.60;;;;;;;;;;12497063;23;20023;-81
2023/06/20 06:48:35;;;;;;;2.05;1.85;;;;;;;;;;12496325;23;20035;-81
2023/06/20 06:53:39;;;;;;;1.83;1.50;;;;;;;;;;12497004;23;20027;-82
2023/06/20 06:58:45;;;;;;;3.45;1.60;;;;;;;;;;12496097;23;20062;-81
2023/06/20 07:03:53;;;;;;;3.03;1.50;;;;;;;;;;12510199;23;20031;-81
2023/06/20 07:08:57;;;;;;;1.65;1.55;;;;;;;;;;12501364;23;20352;-81
2023/06/20 07:14:02;;;;;;;2.50;2.30;;;;;;;;;;12503842;23;20109;-81
2023/06/20 07:19:05;;;;;;;2.58;2.38;;;;;;;;;;12496613;23;20549;-82
2023/06/20 07:24:09;;;;;;;2.33;2.13;;;;;;;;;;12473624;23;20035;-81
2023/06/20 07:29:17;;;;;;;2.17;1.85;;;;;;;;;;12496287;23;20023;-81
2023/06/20 07:34:20;;;;;;;2.75;2.38;;;;;;;;;;12495457;23;20027;-82
2023/06/20 07:39:24;;;;;;;3.17;2.70;;;;;;;;;;12498654;23;20465;-81
2023/06/20 07:44:29;;;;;;;2.95;2.22;;;;;;;;;;12501716;23;20031;-81
2023/06/20 07:49:33;;;;;;;2.57;2.37;;;;;;;;;;12500755;23;20028;-81
2023/06/20 07:54:37;;;;;;;2.17;1.98;;;;;;;;;;12498239;23;20031;-82
2023/06/20 07:59:42;;;;;;;2.40;2.20;;;;;;;;;;12498824;23;20027;-81
2023/06/20 08:04:45;;;;;;;3.43;2.60;;;;;;;;;;12496322;23;20027;-82
2023/06/20 08:09:49;;;;;;;3.13;2.22;;;;;;;;;;12499460;23;20118;-82
2023/06/20 08:14:55;;;;;;;3.35;3.05;;;;;;;;;;12495552;23;20492;-82
2023/06/20 08:20:00;;;;;;;3.40;2.72;;;;;;;;;;12493676;23;20099;-82
2023/06/20 08:25:09;;;;;;;2.80;2.55;;;;;;;;;;12495682;23;20835;-82
2023/06/20 08:30:14;;;;;;;2.92;2.22;;;;;;;;;;12494916;23;20031;-82
2023/06/20 14:35:18;;;;;;;3.53;2.55;;;;;;;;;;12485485;23;20023;-90
2023/06/20 14:40:21;;;;;;;2.95;1.98;;;;;;;;;;12442749;23;20028;-86
2023/06/20 14:45:25;;;;;;;4.82;2.78;;;;;;;;;;12414851;23;20028;-86
2023/06/20 14:50:30;;;;;;;3.13;1.60;;;;;;;;;;12417239;23;20020;-87
2023/06/20 14:55:45;;;;;;;3.35;2.60;;;;;;;;;;12446265;23;20056;-87
2023/06/20 15:00:49;;;;;;;2.40;2.17;;;;;;;;;;12422111;23;20083;-86
2023/06/20 15:05:56;;;;;;;3.72;2.50;;;;;;;;;;12443632;23;20363;-87
2023/06/20 15:11:01;;;;;;;2.15;1.83;;;;;;;;;;12445294;23;20055;-87
2023/06/20 15:16:04;;;;;;;2.53;1.77;;;;;;;;;;12422165;23;20083;-86
2023/06/20 15:21:13;;;;;;;1.92;1.73;;;;;;;;;;12421207;23;20475;-87
2023/06/20 15:26:21;;;;;;;2.28;1.50;;;;;;;;;;12422938;23;20039;-86
2023/06/20 15:31:27;;;;;;;1.45;1.15;;;;;;;;;;12420805;23;20031;-85
2023/06/20 15:36:33;;;;;;;1.55;1.27;;;;;;;;;;12444093;23;20050;-87
2023/06/20 15:41:40;;;;;;;2.53;1.55;;;;;;;;;;12443239;23;20028;-84
2023/06/20 15:46:44;;;;;;;1.02;1.00;;;;;;;;;;12442695;23;20024;-84
2023/06/20 15:51:55;;;;;;;1.63;1.52;;;;;;;;;;12442218;23;20035;-83
2023/06/20 15:56:59;;;;;;;2.33;1.40;;;;;;;;;;12417115;23;20027;-84
2023/06/20 16:02:02;;;;;;;2.10;1.58;;;;;;;;;;12431814;23;20031;-85
2023/06/20 16:07:07;;;;;;;1.48;1.38;;;;;;;;;;12415357;23;20087;-84
2023/06/20 16:12:11;;;;;;;1.52;1.42;;;;;;;;;;12443074;23;20095;-86
2023/06/20 16:17:15;;;;;;;2.40;1.42;;;;;;;;;;12420340;23;20028;-87
2023/06/20 16:22:21;;;;;;;3.40;1.88;;;;;;;;;;12445542;23;20328;-85
2023/06/20 16:27:26;;;;;;;1.83;1.33;;;;;;;;;;12444489;23;20509;-86
2023/06/20 16:32:31;;;;;;;1.77;1.55;;;;;;;;;;12421691;23;20042;-85
2023/06/20 16:37:37;;;;;;;2.25;1.55;;;;;;;;;;12443672;23;20404;-86
2023/06/20 16:42:42;;;;;;;1.70;1.40;;;;;;;;;;12420239;23;20062;-87
2023/06/20 16:47:46;;;;;;;2.83;1.60;;;;;;;;;;12420215;23;20030;-86
2023/06/20 16:52:51;;;;;;;2.03;1.60;;;;;;;;;;12443200;23;20028;-86
2023/06/20 16:57:54;;;;;;;;;;;;;;;;;;12418694;23;20024;-85
2023/06/20 17:02:58;;;;;;;2.63;1.30;;;;;;;;;;12428295;23;20120;-85
2023/06/20 17:08:03;;;;;;;2.13;1.83;;;;;;;;;;12418830;23;20038;-87
2023/06/20 17:13:07;;;;;;;;;;;;;;;;;;12429127;23;20024;-87
2023/06/20 17:18:13;;;;;;;2.75;2.40;;;;;;;;;;12442010;23;20342;-85
2023/06/20 17:23:19;;;;;;;3.38;2.40;;;;;;;;;;12421970;23;20060;-86
2023/06/20 17:28:23;;;;;;;2.85;2.38;;;;;;;;;;12419528;23;20032;-88
2023/06/20 17:33:26;;;;;;;2.20;2.00;;;;;;;;;;12442291;23;20784;-87
2023/06/20 17:38:31;;;;;;;3.97;2.67;;;;;;;;;;12421303;23;20020;-89
2023/06/20 17:43:34;;;;;;;8.02;4.68;;;;;;;;;;12446596;23;20023;-88
2023/06/20 17:48:38;;;;;;;5.45;3.92;;;;;;;;;;12415193;23;20019;-90
2023/06/20 17:53:44;;;;;;;2.67;2.33;;;;;;;;;;12419067;23;20079;-87
2023/06/20 17:58:52;;;;;;;3.67;2.20;;;;;;;;;;12447256;23;20020;-87
2023/06/20 18:03:55;;;;;;;2.63;1.90;;;;;;;;;;12424376;23;20027;-87
2023/06/20 18:09:00;;;;;;;3.45;2.72;;;;;;;;;;12445701;23;20058;-86
2023/06/20 18:14:03;;;;;;;4.00;2.70;;;;;;;;;;12421484;23;20038;-86
2023/06/20 18:19:07;;;;;;;3.70;2.28;;;;;;;;;;12420904;23;20520;-86
2023/06/20 18:24:12;;;;;;;3.53;2.30;;;;;;;;;;12422041;23;20031;-86
2023/06/20 18:29:15;;;;;;;6.40;2.78;;;;;;;;;;12424555;23;20019;-88
2023/06/20 18:34:18;;;;;;;5.10;2.60;;;;;;;;;;12423542;23;20062;-87
2023/06/20 18:39:23;;;;;;;4.47;3.03;;;;;;;;;;12426864;23;20024;-88
2023/06/20 18:44:27;;;;;;;3.40;2.57;;;;;;;;;;12427126;23;20035;-87
2023/06/20 18:49:30;;;;;;;3.72;2.70;;;;;;;;;;12424276;23;20272;-86
2023/06/20 18:54:35;;;;;;;2.63;2.40;;;;;;;;;;12428234;23;20083;-86
2023/06/20 18:59:38;;;;;;;3.67;3.10;;;;;;;;;;12425931;23;20023;-87
2023/06/20 19:04:41;;;;;;;5.60;3.17;;;;;;;;;;12427494;23;20268;-87
2023/06/20 19:09:47;;;;;;;4.55;2.70;;;;;;;;;;12424421;23;20031;-87
2023/06/20 19:14:51;;;;;;;4.80;2.50;;;;;;;;;;12449303;23;20360;-87
2023/06/20 19:19:54;;;;;;;8.13;2.80;;;;;;;;;;12425864;23;20352;-89
2023/06/20 19:24:59;;;;;;;4.00;2.90;;;;;;;;;;12449062;23;20027;-88
2023/06/20 19:30:03;;;;;;;5.00;3.73;;;;;;;;;;12447941;23;20528;-86
2023/06/20 19:35:08;;;;;;;5.25;3.88;;;;;;;;;;12427000;23;20104;-89
2023/06/20 19:40:14;;;;;;;4.50;3.90;;;;;;;;;;12428070;23;20034;-86
2023/06/20 19:45:17;;;;;;;4.25;3.35;;;;;;;;;;12425038;23;20031;-85
2023/06/20 19:50:21;;;;;;;4.00;3.20;;;;;;;;;;12426326;23;20107;-89
2023/06/20 19:55:26;;;;;;;5.70;3.70;;;;;;;;;;12425638;23;20027;-91
2023/06/20 20:00:30;;;;;;;6.83;3.47;;;;;;;;;;12449030;23;20050;-88
2023/06/20 20:05:33;;;;;;;3.17;2.88;;;;;;;;;;12426497;23;20106;-91
2023/06/20 20:10:38;;;;;;;2.47;2.22;;;;;;;;;;12425499;23;20024;-86
2023/06/20 20:15:41;;;;;;;2.30;2.10;;;;;;;;;;12449746;23;20023;-86
2023/06/20 20:20:47;;;;;;;2.83;2.22;;;;;;;;;;12426870;23;20098;-88
2023/06/20 20:25:52;;;;;;;4.65;2.20;;;;;;;;;;12449080;23;20015;-86
2023/06/20 20:30:55;;;;;;;2.60;2.00;;;;;;;;;;12428342;23;20019;-85
2023/06/20 20:35:59;;;;;;;2.75;2.10;;;;;;;;;;12445983;23;20050;-90
2023/06/20 20:41:04;;;;;;;3.33;2.03;;;;;;;;;;12446240;23;20080;-86
2023/06/20 20:46:08;;;;;;;3.17;2.20;;;;;;;;;;12424514;23;20023;-87
2023/06/20 20:51:11;;;;;;;3.03;2.28;;;;;;;;;;12447145;23;20024;-87
2023/06/20 20:56:16;;;;;;;3.78;2.55;;;;;;;;;;12446510;23;20079;-86
2023/06/20 21:01:20;;;;;;;3.42;2.15;;;;;;;;;;12424323;23;20095;-88
2023/06/20 21:06:23;;;;;;;3.35;2.25;;;;;;;;;;12423165;23;20047;-88
2023/06/20 21:11:28;;;;;;;3.53;2.75;;;;;;;;;;12422568;23;20066;-87
2023/06/20 21:16:31;;;;;;;9.57;2.40;;;;;;;;;;12423661;23;20409;-92
2023/06/20 21:21:35;;;;;;;5.55;2.70;;;;;;;;;;12446959;23;20032;-85
2023/06/20 21:26:40;;;;;;;2.97;2.53;;;;;;;;;;12423443;23;20054;-87
2023/06/20 21:31:43;;;;;;;2.63;2.13;;;;;;;;;;12422495;23;20027;-86
2023/06/20 21:36:47;;;;;;;3.20;2.05;;;;;;;;;;12422710;23;20479;-89
2023/06/20 21:41:52;;;;;;;2.25;2.05;;;;;;;;;;12449412;23;20032;-86
2023/06/20 21:46:55;;;;;;;3.13;2.30;;;;;;;;;;12426920;23;20028;-86
2023/06/20 21:51:59;;;;;;;2.28;2.05;;;;;;;;;;12445565;23;20060;-87
2023/06/20 21:57:07;;;;;;;2.58;2.10;;;;;;;;;;12422173;23;20058;-87
2023/06/20 22:02:11;;;;;;;4.03;2.70;;;;;;;;;;12445618;23;20099;-87
2023/06/20 22:07:15;;;;;;;3.08;2.40;;;;;;;;;;12423048;23;20090;-90
2023/06/20 22:12:20;;;;;;;4.15;2.50;;;;;;;;;;12422957;23;20032;-86
2023/06/20 22:17:24;;;;;;;3.65;2.25;;;;;;;;;;12422646;23;20032;-87
2023/06/20 22:22:27;;;;;;;3.10;2.22;;;;;;;;;;12422061;23;20042;-86
2023/06/20 22:27:32;;;;;;;3.10;2.47;;;;;;;;;;12420702;23;20056;-86
2023/06/20 22:32:35;;;;;;;4.93;2.40;;;;;;;;;;12422037;23;20103;-86
2023/06/20 22:37:39;;;;;;;2.20;2.00;;;;;;;;;;12446503;23;20031;-89
2023/06/20 22:42:43;;;;;;;5.07;2.65;;;;;;;;;;12421940;23;20089;-86
2023/06/20 22:47:47;;;;;;;4.03;1.90;;;;;;;;;;12423055;23;20028;-86
2023/06/20 22:52:50;;;;;;;3.60;2.45;;;;;;;;;;12445663;23;20525;-85
2023/06/20 22:57:55;;;;;;;2.85;2.42;;;;;;;;;;12422279;23;20100;-86
2023/06/20 23:02:58;;;;;;;3.20;2.55;;;;;;;;;;12421578;23;20099;-89
2023/06/20 23:08:02;;;;;;;3.15;2.65;;;;;;;;;;12443760;23;20114;-85
2023/06/20 23:13:06;;;;;;;3.50;2.15;;;;;;;;;;12421680;23;20087;-89
2023/06/20 23:18:10;;;;;;;2.80;2.30;;;;;;;;;;12426981;23;20043;-86
2023/06/20 23:23:13;;;;;;;4.15;2.03;;;;;;;;;;12424443;23;20032;-91
2023/06/20 23:28:21;;;;;;;2.65;1.98;;;;;;;;;;12425541;23;20061;-85
2023/06/20 23:33:25;;;;;;;2.53;2.17;;;;;;;;;;12425753;23;20360;-88
2023/06/20 23:38:28;;;;;;;3.35;2.40;;;;;;;;;;12448435;23;20668;-90
2023/06/20 23:43:33;;;;;;;2.95;2.15;;;;;;;;;;12424488;23;20038;-86
2023/06/20 23:48:37;;;;;;;2.85;2.20;;;;;;;;;;12425383;23;20060;-89
2023/06/20 23:53:40;;;;;;;3.13;2.30;;;;;;;;;;12423983;23;20364;-86
2023/06/20 23:58:45;;;;;;;4.03;2.33;;;;;;;;;;12425761;23;20099;-88
